createdAt,value
2019-02-02T00:01:46.049Z,7.60
2019-02-02T00:04:13.208Z,6.83
2019-02-02T00:06:40.395Z,7.73
2019-02-02T00:09:08.134Z,7.80
2019-02-02T00:11:35.335Z,6.23
2019-02-02T00:14:02.619Z,6.70
2019-02-02T00:16:29.836Z,10.70
2019-02-02T00:18:57.035Z,7.40
2019-02-02T00:21:24.263Z,7.20
2019-02-02T00:23:51.498Z,6.60
2019-02-02T00:26:18.722Z,6.60
2019-02-02T00:28:45.911Z,6.10
2019-02-02T00:31:13.135Z,5.97
2019-02-02T00:33:40.366Z,6.67
2019-02-02T00:36:07.665Z,8.60
2019-02-02T00:38:34.849Z,6.40
2019-02-02T00:41:02.035Z,5.93
2019-02-02T00:43:29.258Z,6.00
2019-02-02T00:45:56.495Z,5.73
2019-02-02T00:48:23.694Z,7.87
2019-02-02T00:50:50.915Z,5.93
2019-02-02T00:53:18.138Z,5.93
2019-02-02T00:55:45.405Z,6.50
2019-02-02T00:58:12.670Z,6.53
2019-02-02T01:00:39.890Z,5.20
2019-02-02T01:03:07.078Z,5.47
2019-02-02T01:05:34.307Z,6.13
2019-02-02T01:08:01.645Z,7.93
2019-02-02T01:10:30.567Z,6.53
2019-02-02T01:12:57.763Z,6.80
2019-02-02T01:15:24.983Z,5.63
2019-02-02T01:17:52.176Z,5.47
2019-02-02T01:20:20.240Z,5.50
2019-02-02T01:22:47.447Z,6.97
2019-02-02T01:25:14.671Z,6.27
2019-02-02T01:27:41.889Z,7.30
2019-02-02T01:30:10.860Z,6.03
2019-02-02T01:32:38.202Z,6.83
2019-02-02T01:35:06.582Z,5.63
2019-02-02T01:37:33.800Z,5.73
2019-02-02T01:40:01.036Z,6.93
2019-02-02T01:42:28.251Z,6.47
2019-02-02T01:44:55.427Z,8.00
2019-02-02T01:47:22.635Z,6.23
2019-02-02T01:49:49.830Z,7.00
2019-02-02T01:52:17.064Z,5.70
2019-02-02T01:54:44.265Z,6.80
2019-02-02T01:57:11.496Z,7.47
2019-02-02T01:59:38.788Z,6.17
2019-02-02T02:02:06.007Z,7.10
2019-02-02T02:04:33.193Z,7.67
2019-02-02T02:07:00.460Z,7.30
2019-02-02T02:09:27.644Z,8.30
2019-02-02T02:11:54.851Z,5.70
2019-02-02T02:14:22.235Z,7.30
2019-02-02T02:16:49.412Z,6.60
2019-02-02T02:19:16.585Z,6.73
2019-02-02T02:21:43.802Z,5.30
2019-02-02T02:24:11.004Z,6.07
2019-02-02T02:26:38.223Z,6.50
2019-02-02T02:29:05.427Z,6.10
2019-02-02T02:31:32.653Z,6.23
2019-02-02T02:33:59.947Z,5.60
2019-02-02T02:36:27.161Z,7.13
2019-02-02T02:38:54.354Z,7.37
2019-02-02T02:41:21.735Z,6.03
2019-02-02T02:43:48.939Z,6.30
2019-02-02T02:46:16.103Z,8.43
2019-02-02T02:48:43.456Z,6.00
2019-02-02T02:51:10.658Z,8.17
2019-02-02T02:53:37.834Z,4.97
2019-02-02T02:56:05.081Z,7.10
2019-02-02T02:58:41.211Z,7.63
2019-02-02T03:01:01.430Z,7.07
2019-02-02T03:03:28.664Z,6.47
2019-02-02T03:05:55.851Z,7.77
2019-02-02T03:08:23.081Z,5.80
2019-02-02T03:10:50.299Z,6.60
2019-02-02T03:13:17.573Z,5.47
2019-02-02T03:15:44.782Z,7.50
2019-02-02T03:18:12.004Z,6.57
2019-02-02T03:20:39.235Z,6.00
2019-02-02T03:23:06.482Z,6.80
2019-02-02T03:25:33.727Z,6.70
2019-02-02T03:28:00.925Z,5.00
2019-02-02T03:30:28.184Z,5.20
2019-02-02T03:32:55.360Z,6.03
2019-02-02T03:35:22.626Z,5.80
2019-02-02T03:37:49.889Z,6.90
2019-02-02T03:40:18.680Z,9.33
2019-02-02T03:42:45.907Z,6.37
2019-02-02T03:45:14.834Z,6.20
2019-02-02T03:47:42.036Z,5.70
2019-02-02T03:50:09.352Z,6.07
2019-02-02T03:52:36.607Z,4.90
2019-02-02T03:55:04.399Z,6.57
2019-02-02T03:57:31.694Z,5.50
2019-02-02T03:59:58.864Z,6.20
2019-02-02T04:02:26.054Z,6.07
2019-02-02T04:04:53.258Z,5.40
2019-02-02T04:07:20.483Z,9.60
2019-02-02T04:09:47.754Z,5.47
2019-02-02T04:12:14.939Z,6.00
2019-02-02T04:14:42.170Z,5.97
2019-02-02T04:17:09.394Z,6.13
2019-02-02T04:19:36.610Z,5.37
2019-02-02T04:22:03.883Z,7.27
2019-02-02T04:24:31.051Z,6.53
2019-02-02T04:26:58.228Z,5.60
2019-02-02T04:29:25.426Z,7.40
2019-02-02T04:31:52.653Z,5.47
2019-02-02T04:34:19.869Z,6.63
2019-02-02T04:36:47.036Z,5.77
2019-02-02T04:39:14.354Z,5.37
2019-02-02T04:41:41.556Z,6.80
2019-02-02T04:44:08.751Z,6.63
2019-02-02T04:46:35.982Z,7.43
2019-02-02T04:49:03.253Z,7.00
2019-02-02T04:51:30.466Z,6.60
2019-02-02T04:53:58.087Z,5.80
2019-02-02T04:56:25.678Z,5.77
2019-02-02T04:58:52.833Z,6.50
2019-02-02T05:01:20.025Z,6.87
2019-02-02T05:03:47.284Z,6.30
2019-02-02T05:06:14.463Z,6.87
2019-02-02T05:08:41.783Z,6.43
2019-02-02T05:11:08.944Z,6.73
2019-02-02T05:13:36.132Z,6.27
2019-02-02T05:16:03.359Z,5.90
2019-02-02T05:18:30.526Z,6.07
2019-02-02T05:20:57.773Z,6.97
2019-02-02T05:23:24.966Z,5.50
2019-02-02T05:25:52.129Z,5.53
2019-02-02T05:28:19.339Z,4.97
2019-02-02T05:30:46.592Z,6.50
2019-02-02T05:33:14.015Z,6.80
2019-02-02T05:35:41.215Z,5.83
2019-02-02T05:38:08.425Z,6.43
2019-02-02T05:40:35.737Z,5.67
2019-02-02T05:43:02.953Z,5.00
2019-02-02T05:45:30.137Z,5.87
2019-02-02T05:47:57.345Z,6.27
2019-02-02T05:50:24.612Z,5.90
2019-02-02T05:52:51.773Z,7.53
2019-02-02T05:55:19.448Z,5.17
2019-02-02T05:57:46.633Z,6.97
2019-02-02T06:00:28.102Z,5.13
2019-02-02T06:02:55.296Z,6.43
2019-02-02T06:05:22.513Z,6.80
2019-02-02T06:07:49.878Z,5.70
2019-02-02T06:10:17.210Z,6.47
2019-02-02T06:12:44.453Z,5.37
2019-02-02T06:15:11.689Z,6.00
2019-02-02T06:17:38.903Z,6.00
2019-02-02T06:20:07.390Z,5.73
2019-02-02T06:22:34.590Z,7.07
2019-02-02T06:25:01.834Z,6.37
2019-02-02T06:27:29.013Z,7.00
2019-02-02T06:30:04.023Z,7.50
2019-02-02T06:32:25.433Z,7.37
2019-02-02T06:34:52.739Z,5.87
2019-02-02T06:37:19.908Z,6.60
2019-02-02T06:39:47.242Z,5.87
2019-02-02T06:42:14.437Z,5.70
2019-02-02T06:44:41.658Z,6.67
2019-02-02T06:47:08.869Z,6.33
2019-02-02T06:49:36.082Z,7.33
2019-02-02T06:52:03.421Z,6.20
2019-02-02T06:54:33.773Z,6.00
2019-02-02T06:56:59.687Z,6.30
2019-02-02T06:59:26.950Z,5.13
2019-02-02T07:01:54.297Z,5.47
2019-02-02T07:04:21.498Z,5.70
2019-02-02T07:06:48.686Z,8.03
2019-02-02T07:09:16.038Z,6.60
2019-02-02T07:11:43.222Z,5.47
2019-02-02T07:14:10.422Z,7.43
2019-02-02T07:16:37.640Z,7.40
2019-02-02T07:19:04.931Z,6.00
2019-02-02T07:21:32.156Z,7.00
2019-02-02T07:23:59.339Z,6.40
2019-02-02T07:26:26.550Z,5.93
2019-02-02T07:28:53.745Z,5.93
2019-02-02T07:31:20.974Z,5.47
2019-02-02T07:33:48.150Z,5.30
2019-02-02T07:36:15.454Z,6.17
2019-02-02T07:38:42.646Z,6.20
2019-02-02T07:41:09.850Z,7.10
2019-02-02T07:43:37.076Z,6.00
2019-02-02T07:46:14.712Z,5.97
2019-02-02T07:48:33.527Z,7.60
2019-02-02T07:51:00.849Z,5.77
2019-02-02T07:53:28.181Z,6.10
2019-02-02T07:55:55.403Z,7.37
2019-02-02T07:58:22.601Z,7.57
2019-02-02T08:00:49.823Z,8.27
2019-02-02T08:03:17.039Z,6.23
2019-02-02T08:05:44.247Z,6.23
2019-02-02T08:08:11.475Z,5.10
2019-02-02T08:10:38.681Z,7.80
2019-02-02T08:13:05.930Z,6.43
2019-02-02T08:15:33.094Z,4.43
2019-02-02T08:18:00.307Z,6.13
2019-02-02T08:20:27.503Z,4.90
2019-02-02T08:22:56.568Z,5.30
2019-02-02T08:25:24.002Z,5.03
2019-02-02T08:27:51.202Z,4.93
2019-02-02T08:30:23.128Z,4.60
2019-02-02T08:32:50.439Z,6.50
2019-02-02T08:35:17.777Z,5.43
2019-02-02T08:37:44.940Z,5.40
2019-02-02T08:40:13.982Z,5.50
2019-02-02T08:42:41.219Z,5.20
2019-02-02T08:45:09.174Z,5.70
2019-02-02T08:47:36.502Z,6.53
2019-02-02T08:50:05.717Z,7.53
2019-02-02T08:52:32.946Z,5.40
2019-02-02T08:55:00.683Z,5.80
2019-02-02T08:57:28.011Z,6.27
2019-02-02T08:59:55.298Z,7.07
2019-02-02T09:02:22.499Z,6.97
2019-02-02T09:04:49.698Z,6.53
2019-02-02T09:07:16.901Z,5.27
2019-02-02T09:09:44.086Z,6.13
2019-02-02T09:12:11.231Z,5.60
2019-02-02T09:14:38.588Z,6.23
2019-02-02T09:17:05.784Z,6.40
2019-02-02T09:19:33.008Z,6.63
2019-02-02T09:22:00.169Z,7.63
2019-02-02T09:24:27.406Z,3.73
2019-02-02T09:26:54.574Z,5.20
2019-02-02T09:29:21.809Z,4.97
2019-02-02T09:31:48.996Z,5.37
2019-02-02T09:34:16.200Z,5.20
2019-02-02T09:36:43.407Z,4.80
2019-02-02T09:39:10.618Z,7.20
2019-02-02T09:41:40.717Z,5.20
2019-02-02T09:44:06.918Z,6.47
2019-02-02T09:46:34.099Z,4.33
2019-02-02T09:49:01.354Z,5.10
2019-02-02T09:51:28.561Z,6.13
2019-02-02T09:53:55.797Z,5.93
2019-02-02T09:56:22.961Z,6.10
2019-02-02T09:58:50.182Z,6.80
2019-02-02T10:01:27.443Z,5.57
2019-02-02T10:03:46.429Z,4.20
2019-02-02T10:06:13.699Z,7.67
2019-02-02T10:08:40.907Z,6.73
2019-02-02T10:11:08.060Z,4.90
2019-02-02T10:13:35.297Z,5.10
2019-02-02T10:16:02.474Z,6.90
2019-02-02T10:18:29.657Z,5.50
2019-02-02T10:21:04.162Z,6.70
2019-02-02T10:23:26.084Z,4.93
2019-02-02T10:25:53.246Z,6.47
2019-02-02T10:28:20.583Z,6.73
2019-02-02T10:30:47.782Z,6.13
2019-02-02T10:33:15.431Z,6.50
2019-02-02T10:35:42.805Z,7.57
2019-02-02T10:38:10.006Z,5.80
2019-02-02T10:40:37.209Z,6.00
2019-02-02T10:43:04.861Z,5.67
2019-02-02T10:45:32.119Z,5.60
2019-02-02T10:47:59.297Z,6.23
2019-02-02T10:50:26.492Z,6.07
2019-02-02T10:52:53.720Z,6.10
2019-02-02T10:55:20.909Z,5.50
2019-02-02T10:57:48.101Z,5.67
2019-02-02T11:00:20.608Z,6.00
2019-02-02T11:02:47.752Z,5.40
2019-02-02T11:05:14.985Z,5.53
2019-02-02T11:07:42.309Z,5.97
2019-02-02T11:10:12.448Z,7.27
2019-02-02T11:12:39.768Z,5.33
2019-02-02T11:15:09.262Z,5.70
2019-02-02T11:17:36.600Z,4.20
2019-02-02T11:20:05.086Z,6.87
2019-02-02T11:22:32.255Z,6.07
2019-02-02T11:24:59.611Z,5.40
2019-02-02T11:27:26.890Z,4.60
2019-02-02T11:29:54.220Z,5.87
2019-02-02T11:32:21.531Z,6.63
2019-02-02T11:34:48.863Z,5.90
2019-02-02T11:37:16.082Z,5.93
2019-02-02T11:39:43.334Z,4.80
2019-02-02T11:42:10.497Z,6.73
2019-02-02T11:44:37.676Z,6.00
2019-02-02T11:47:04.865Z,4.43
2019-02-02T11:49:32.199Z,7.23
2019-02-02T11:51:59.364Z,5.50
2019-02-02T11:54:26.574Z,7.07
2019-02-02T11:56:53.802Z,5.67
2019-02-02T11:59:20.982Z,5.30
2019-02-02T12:01:48.254Z,6.13
2019-02-02T12:04:15.473Z,5.40
2019-02-02T12:06:42.676Z,5.40
2019-02-02T12:09:09.863Z,5.30
2019-02-02T12:11:37.107Z,5.50
2019-02-02T12:14:04.321Z,5.83
2019-02-02T12:16:31.567Z,5.70
2019-02-02T12:18:58.728Z,5.93
2019-02-02T12:21:25.930Z,7.47
2019-02-02T12:23:53.165Z,8.00
2019-02-02T12:26:20.428Z,5.90
2019-02-02T12:28:47.602Z,5.37
2019-02-02T12:31:14.828Z,5.83
2019-02-02T12:33:41.995Z,6.27
2019-02-02T12:36:09.212Z,5.80
2019-02-02T12:38:36.407Z,4.83
2019-02-02T12:41:03.647Z,7.80
2019-02-02T12:43:30.852Z,7.17
2019-02-02T12:45:58.070Z,5.93
2019-02-02T12:48:25.245Z,4.63
2019-02-02T12:50:52.497Z,5.80
2019-02-02T12:53:19.676Z,5.30
2019-02-02T12:55:46.863Z,5.90
2019-02-02T12:58:14.058Z,5.33
2019-02-02T13:00:44.280Z,6.10
2019-02-02T13:03:10.585Z,5.80
2019-02-02T13:05:39.271Z,7.00
2019-02-02T13:08:06.778Z,5.57
2019-02-02T13:10:33.970Z,6.90
2019-02-02T13:13:01.176Z,7.40
2019-02-02T13:15:28.371Z,8.03
2019-02-02T13:17:55.698Z,4.70
2019-02-02T13:20:22.871Z,6.20
2019-02-02T13:22:50.048Z,5.20
2019-02-02T13:25:18.683Z,6.00
2019-02-02T13:27:46.026Z,6.30
2019-02-02T13:30:27.520Z,6.70
2019-02-02T13:32:54.784Z,5.07
2019-02-02T13:35:22.064Z,6.70
2019-02-02T13:37:49.304Z,7.67
2019-02-02T13:40:17.781Z,6.17
2019-02-02T13:42:45.002Z,5.27
2019-02-02T13:45:12.964Z,5.60
2019-02-02T13:47:40.150Z,6.20
2019-02-02T13:50:09.996Z,7.10
2019-02-02T13:52:38.104Z,6.90
2019-02-02T13:55:05.368Z,6.10
2019-02-02T13:57:32.585Z,5.90
2019-02-02T13:59:59.768Z,7.30
2019-02-02T14:02:26.934Z,6.30
2019-02-02T14:04:54.161Z,6.23
2019-02-02T14:07:21.312Z,6.47
2019-02-02T14:09:48.571Z,5.87
2019-02-02T14:12:15.789Z,6.37
2019-02-02T14:14:43.136Z,5.13
2019-02-02T14:17:10.361Z,5.47
2019-02-02T14:19:37.580Z,6.10
2019-02-02T14:22:04.735Z,6.53
2019-02-02T14:24:31.957Z,4.87
2019-02-02T14:26:59.149Z,6.40
2019-02-02T14:29:26.323Z,7.63
2019-02-02T14:31:53.562Z,8.20
2019-02-02T14:34:20.755Z,7.67
2019-02-02T14:36:47.995Z,5.30
2019-02-02T14:39:15.214Z,6.77
2019-02-02T14:41:42.395Z,7.13
2019-02-02T14:44:09.737Z,6.40
2019-02-02T14:46:36.918Z,6.23
2019-02-02T14:49:04.114Z,6.07
2019-02-02T14:51:31.322Z,8.20
2019-02-02T14:53:58.504Z,8.70
2019-02-02T14:56:25.736Z,6.90
2019-02-02T14:58:52.939Z,7.63
2019-02-02T15:01:20.112Z,6.80
2019-02-02T15:03:47.318Z,7.13
2019-02-02T15:06:14.459Z,6.53
2019-02-02T15:08:41.693Z,6.73
2019-02-02T15:11:08.878Z,7.97
2019-02-02T15:13:36.078Z,8.50
2019-02-02T15:16:03.297Z,7.87
2019-02-02T15:18:30.485Z,6.40
2019-02-02T15:20:57.683Z,6.60
2019-02-02T15:23:24.862Z,7.83
2019-02-02T15:25:52.060Z,6.03
2019-02-02T15:28:19.259Z,8.70
2019-02-02T15:30:46.431Z,7.10
2019-02-02T15:33:13.643Z,6.90
2019-02-02T15:35:40.805Z,6.43
2019-02-02T15:38:08.187Z,7.50
2019-02-02T15:40:35.386Z,7.70
2019-02-02T15:43:02.598Z,7.10
2019-02-02T15:45:29.932Z,7.30
2019-02-02T15:47:57.251Z,7.60
2019-02-02T15:50:24.469Z,8.37
2019-02-02T15:52:51.628Z,7.83
2019-02-02T15:55:20.282Z,5.70
2019-02-02T15:57:47.458Z,7.67
2019-02-02T16:00:28.762Z,6.97
2019-02-02T16:02:56.000Z,8.23
2019-02-02T16:05:23.248Z,9.23
2019-02-02T16:07:50.481Z,8.60
2019-02-02T16:10:19.652Z,9.50
2019-02-02T16:12:46.927Z,8.00
2019-02-02T16:15:14.103Z,7.40
2019-02-02T16:17:41.337Z,8.77
2019-02-02T16:20:14.687Z,7.00
2019-02-02T16:22:41.987Z,8.03
2019-02-02T16:25:09.989Z,8.03
2019-02-02T16:27:37.231Z,6.93
2019-02-02T16:30:06.477Z,6.73
2019-02-02T16:32:33.707Z,6.80
2019-02-02T16:35:00.948Z,5.67
2019-02-02T16:37:28.200Z,6.53
2019-02-02T16:39:55.415Z,7.20
2019-02-02T16:42:22.579Z,7.70
2019-02-02T16:44:49.807Z,7.00
2019-02-02T16:47:17.030Z,9.80
2019-02-02T16:49:44.239Z,6.90
2019-02-02T16:52:11.466Z,7.60
2019-02-02T16:54:38.693Z,6.83
2019-02-02T16:57:05.930Z,6.87
2019-02-02T16:59:33.549Z,8.23
2019-02-02T17:02:00.739Z,7.43
2019-02-02T17:04:27.919Z,7.70
2019-02-02T17:06:55.150Z,7.30
2019-02-02T17:09:22.370Z,8.57
2019-02-02T17:11:49.606Z,7.67
2019-02-02T17:14:17.959Z,8.60
2019-02-02T17:16:45.330Z,7.83
2019-02-02T17:19:12.527Z,9.17
2019-02-02T17:21:39.691Z,7.70
2019-02-02T17:24:06.910Z,6.60
2019-02-02T17:26:34.143Z,7.43
2019-02-02T17:29:01.337Z,7.73
2019-02-02T17:31:28.547Z,8.60
2019-02-02T17:33:55.782Z,8.30
2019-02-02T17:36:22.953Z,10.30
2019-02-02T17:38:50.237Z,7.10
2019-02-02T17:41:17.470Z,6.77
2019-02-02T17:43:44.659Z,7.27
2019-02-02T17:46:11.889Z,7.60
2019-02-02T17:48:39.429Z,5.87
2019-02-02T17:51:06.656Z,7.77
2019-02-02T17:53:33.841Z,7.77
2019-02-02T17:56:01.089Z,9.77
2019-02-02T17:58:39.019Z,7.70
2019-02-02T18:00:59.366Z,9.13
2019-02-02T18:03:26.595Z,8.30
2019-02-02T18:05:53.808Z,8.30
2019-02-02T18:08:21.130Z,8.20
2019-02-02T18:10:48.335Z,8.30
2019-02-02T18:13:15.528Z,8.13
2019-02-02T18:15:42.729Z,10.53
2019-02-02T18:18:09.925Z,8.00
2019-02-02T18:20:37.110Z,8.60
2019-02-02T18:23:04.306Z,7.40
2019-02-02T18:25:31.489Z,7.57
2019-02-02T18:27:58.735Z,7.17
2019-02-02T18:30:25.951Z,9.43
2019-02-02T18:32:53.226Z,7.67
2019-02-02T18:35:20.447Z,9.07
2019-02-02T18:37:47.650Z,8.10
2019-02-02T18:40:16.197Z,9.40
2019-02-02T18:42:43.385Z,8.97
2019-02-02T18:45:15.690Z,6.70
2019-02-02T18:47:42.857Z,7.23
2019-02-02T18:50:11.750Z,12.50
2019-02-02T18:52:38.938Z,8.10
2019-02-02T18:55:08.590Z,9.43
2019-02-02T18:57:35.837Z,8.67
2019-02-02T19:00:06.085Z,8.90
2019-02-02T19:02:33.275Z,9.23
2019-02-02T19:05:03.709Z,7.67
2019-02-02T19:07:29.601Z,8.47
2019-02-02T19:09:56.805Z,9.17
2019-02-02T19:12:24.018Z,7.47
2019-02-02T19:14:51.199Z,9.13
2019-02-02T19:17:18.395Z,9.20
2019-02-02T19:19:45.603Z,8.97
2019-02-02T19:22:12.771Z,6.90
2019-02-02T19:24:39.981Z,6.77
2019-02-02T19:27:07.193Z,8.17
2019-02-02T19:29:34.376Z,11.83
2019-02-02T19:32:01.541Z,8.27
2019-02-02T19:34:28.714Z,7.90
2019-02-02T19:36:55.895Z,6.67
2019-02-02T19:39:23.144Z,9.40
2019-02-02T19:41:50.345Z,8.77
2019-02-02T19:44:17.591Z,9.10
2019-02-02T19:46:44.761Z,8.80
2019-02-02T19:49:11.962Z,8.77
2019-02-02T19:51:39.152Z,8.67
2019-02-02T19:54:07.741Z,9.30
2019-02-02T19:56:35.179Z,8.10
2019-02-02T19:59:02.377Z,9.03
2019-02-02T20:01:29.566Z,8.37
2019-02-02T20:03:56.824Z,9.00
2019-02-02T20:06:24.033Z,8.07
2019-02-02T20:08:51.224Z,9.47
2019-02-02T20:11:18.465Z,7.70
2019-02-02T20:13:45.635Z,7.37
2019-02-02T20:16:12.845Z,10.07
2019-02-02T20:18:40.033Z,7.47
2019-02-02T20:21:07.324Z,8.03
2019-02-02T20:23:38.075Z,10.13
2019-02-02T20:26:03.796Z,8.87
2019-02-02T20:28:30.978Z,10.17
2019-02-02T20:30:58.161Z,9.90
2019-02-02T20:33:25.395Z,8.40
2019-02-02T20:35:52.546Z,7.03
2019-02-02T20:38:19.770Z,9.97
2019-02-02T20:40:46.979Z,12.90
2019-02-02T20:43:14.230Z,9.97
2019-02-02T20:45:41.408Z,11.90
2019-02-02T20:48:08.586Z,8.13
2019-02-02T20:50:35.939Z,8.60
2019-02-02T20:53:03.609Z,9.87
2019-02-02T20:55:33.675Z,11.00
2019-02-02T20:58:00.880Z,10.70
2019-02-02T21:00:28.242Z,11.20
2019-02-02T21:02:55.570Z,10.60
2019-02-02T21:05:22.723Z,13.27
2019-02-02T21:07:49.945Z,11.30
2019-02-02T21:10:19.350Z,11.07
2019-02-02T21:12:46.569Z,8.20
2019-02-02T21:15:13.826Z,12.20
2019-02-02T21:17:41.070Z,9.37
2019-02-02T21:20:20.055Z,10.17
2019-02-02T21:22:47.531Z,12.73
2019-02-02T21:25:15.392Z,10.23
2019-02-02T21:27:42.576Z,10.77
2019-02-02T21:30:15.796Z,8.10
2019-02-02T21:32:43.000Z,9.70
2019-02-02T21:35:10.177Z,8.83
2019-02-02T21:37:37.734Z,9.53
2019-02-02T21:40:07.477Z,10.10
2019-02-02T21:42:34.692Z,9.80
2019-02-02T21:45:01.918Z,10.43
2019-02-02T21:47:29.246Z,9.30
2019-02-02T21:49:56.545Z,10.93
2019-02-02T21:52:24.126Z,8.97
2019-02-02T21:54:51.362Z,8.30
2019-02-02T21:57:18.575Z,8.03
2019-02-02T21:59:45.833Z,9.70
2019-02-02T22:02:12.987Z,9.20
2019-02-02T22:04:41.549Z,10.60
2019-02-02T22:07:08.950Z,8.67
2019-02-02T22:09:36.134Z,10.07
2019-02-02T22:12:03.505Z,9.50
2019-02-02T22:14:30.806Z,8.50
2019-02-02T22:16:57.975Z,8.57
2019-02-02T22:19:25.207Z,9.57
2019-02-02T22:21:52.424Z,9.53
2019-02-02T22:24:20.169Z,9.77
2019-02-02T22:26:47.354Z,8.90
2019-02-02T22:29:14.534Z,11.63
2019-02-02T22:31:41.775Z,10.60
2019-02-02T22:34:08.979Z,10.10
2019-02-02T22:36:36.217Z,8.17
2019-02-02T22:39:06.820Z,9.47
2019-02-02T22:41:34.070Z,9.23
2019-02-02T22:44:01.295Z,9.00
2019-02-02T22:46:28.504Z,9.83
2019-02-02T22:48:55.983Z,8.30
2019-02-02T22:51:23.354Z,9.47
2019-02-02T22:53:50.992Z,9.33
2019-02-02T22:56:18.192Z,10.20
2019-02-02T22:58:45.437Z,10.33
2019-02-02T23:01:27.130Z,10.40
2019-02-02T23:04:31.744Z,9.33
2019-02-02T23:07:28.712Z,13.87
2019-02-02T23:10:55.815Z,8.03
2019-02-02T23:14:01.646Z,8.97
2019-02-02T23:16:29.395Z,8.40
2019-02-02T23:18:57.710Z,8.27
2019-02-02T23:21:25.313Z,7.50
2019-02-02T23:23:52.555Z,9.07
2019-02-02T23:26:19.761Z,9.87
2019-02-02T23:28:46.916Z,9.30
2019-02-02T23:31:14.255Z,10.33
2019-02-02T23:33:41.690Z,10.50
2019-02-02T23:36:08.917Z,8.47
2019-02-02T23:38:36.139Z,8.10
2019-02-02T23:41:03.417Z,10.00
2019-02-02T23:43:30.654Z,9.57
2019-02-02T23:45:57.883Z,9.03
2019-02-02T23:48:25.517Z,7.40
2019-02-02T23:50:52.730Z,8.17
2019-02-02T23:53:19.965Z,8.90
2019-02-02T23:55:47.129Z,7.87
2019-02-02T23:58:14.335Z,9.07
